William P Hobby Airport
KHOU : rendu visible

Aérodrome :











RETROUVEZ-NOUS SUR...

 
LOGIN :

S'inscrire | Disclaimer

   EN    FR    IT 

 









Légende :    VFR   VFR Marginal   IFR   IFR Intensif   IFR Très Intensif
Visi : 
Plafond : 
>= 8 km
>= 3000ft
5 à 8 km
1000 à 3000 ft
1500m à 5 km
500 à 1000 ft
800 à 1500m
200 à 500 ft
< 800m
< 200 ft
Symboles :   Orages  Brouillard  Fortes neiges  Fortes précipitations  Vent > 20 kt







- Altitude de l'aérodrome : 46 ft
- Code IATA : HOU


KHOU - William P Hobby

DERNIER METAR :
  • 170553Z 00000KT 10SM -TSRA FEW016 SCT040CB OVC090 21/19 A2995 RMK AO2 PK WND 02027/0455 SLP147 OCNL LTGICCC E-SW TS E-SW MOV E P0032 60081 T02060189 10294 20200 403220200 50017

METARs EXPIRÉS :
  • 170519Z 02012KT 3SM TSRA BR SCT020 BKN034CB OVC070 20/19 A2995 RMK AO2 PK WND 02027/0455 OCNL LTGICCC SE-NW TS SE-NW MOV E P0028 T02000189
  • 170453Z 02020G30KT 1SM +TSRA BR BKN007 BKN011 OVC017CB 20/19 A2997 RMK AO2 PK WND 35033/0442 WSHFT 0428 RAB0356 SLP152 OCNL LTGICCC NW-E TS NW-E MOV NE P0049 T02000189
  • 170445Z 36020G33KT 1 3/4SM TSRA BR BKN007 BKN011 OVC017CB 21/19 A2998 RMK AO2 PK WND 35033/0442 WSHFT 0428 LTG DSNT ALQDS RAB0356 OCNL LTGICCC NW-E TS NW-E MOV NE P0028 T02060189
  • 170420Z 02007KT 350V050 9SM -TSRA BKN010 BKN015CB OVC030 23/21 A2996 RMK AO2 RAB0356 PRESRR OCNL LTGICCC NW-E TS NW-E MOV NE P0003 T02280211
  • 170353Z 02011G17KT 9SM TS FEW012 BKN028CB BKN250 24/21 A2994 RMK AO2 LTG DSNT NW-NE RAB07E39 TSB45 SLP142 OCNL LTGICCG VC N-NE TS VC N-NE MOV SE P0000 T02390211
  • 170345Z 04008KT 9SM TS FEW012 BKN028CB BKN250 24/21 A2994 RMK AO2 LTG DSNT NE RAB07E39 TSB45 OCNL LTGICCG VC N-NE TS VC N-NE MOV SE P0000 T02390211

TAF KHOU
Valide du 17 à 07h jusqu'au 18 à 06h UTC


170634Z 1707/1806 VRB06KT P6SM -RA FEW016 SCT040 OVC090
TEMPO 1707/1709 VRB15KT 4SM -TSRA BKN035CB OVC080
FM171000 11007KT P6SM SCT025 OVC100
TEMPO 1710/1712 6SM -SHRA OVC040
FM171600 VRB05KT P6SM BKN025 BKN050
FM171900 11006KT P6SM VCSH SCT035 BKN100
FM172100 16007KT P6SM VCTS SCT040CB
FM180200 17005KT P6SM SCT030
FIR KZHU / Amérique du Nord



MET'MAP, la Météo Aéronautique d'un coup d'oeil ! - Copyright ORBIFLY Décembre 2007 - Disclaimer

ORBIFLY MET'MAP TEAM :

Programmation & Développement : Alexandra Zaïnal
Conception & Développement : Baudouin d'Aumeries
Co-Programmation & Développement : Marc-Olivier Méhu
Soutien technique & logistique : Manuel Goepfert

Contact : metmap@orbifly.com




SOURCES & CREDITS :

   NOAA       Earth
Advisory